Time;durP1;ratioP1;P1;durP2;ratioP2;P2;SDS_P1;SDS_P2;PMS_P1;PMS_P2;Temp;Humidity;BMP_temperature;BMP_pressure;BME280_temperature;BME280_humidity;BME280_pressure;Samples;Min_cycle;Max_cycle;Signal;HPM_P1;HPM_P2
2023/03/25 00:00:14;;;;;;;0.20;0.20;;;;;;;10.44;77.41;94925.78;4390271;32;20241;-54
2023/03/25 00:02:43;;;;;;;0.10;0.10;;;;;;;10.47;77.40;94929.72;4379664;32;20192;-55
2023/03/25 00:05:10;;;;;;;0.10;0.10;;;;;;;10.52;76.71;94921.62;4389385;32;20199;-55
2023/03/25 00:07:35;;;;;;;0.80;0.30;;;;;;;10.38;76.68;94921.72;4406297;32;20252;-55
2023/03/25 00:10:01;;;;;;;0.10;0.10;;;;;;;10.31;76.53;94910.72;4386400;32;20188;-53
2023/03/25 00:12:26;;;;;;;0.10;0.10;;;;;;;10.27;77.90;94915.84;4390288;32;20367;-53
2023/03/25 00:14:54;;;;;;;0.20;0.20;;;;;;;10.39;76.55;94906.59;4383790;32;20216;-53
2023/03/25 00:17:21;;;;;;;0.20;0.20;;;;;;;10.30;77.22;94898.56;4387558;32;20200;-56
2023/03/25 00:19:49;;;;;;;0.50;0.50;;;;;;;10.24;77.23;94895.25;4402241;32;20238;-53
2023/03/25 00:22:15;;;;;;;0.20;0.20;;;;;;;10.19;76.82;94897.22;4403458;32;20199;-54
2023/03/25 00:24:41;;;;;;;0.63;0.43;;;;;;;10.25;77.22;94904.75;4390926;32;20181;-55
2023/03/25 00:27:06;;;;;;;1.30;0.37;;;;;;;10.28;76.48;94895.44;4403892;32;20222;-52
2023/03/25 00:29:31;;;;;;;0.17;0.17;;;;;;;10.36;76.18;94901.87;4388059;32;20196;-52
2023/03/25 00:31:56;;;;;;;15.37;0.63;;;;;;;10.28;76.53;94896.22;4383858;32;20250;-53
2023/03/25 00:34:22;;;;;;;0.23;0.23;;;;;;;10.35;75.56;94889.72;4388742;32;20192;-55
2023/03/25 00:36:47;;;;;;;0.43;0.43;;;;;;;10.20;76.02;94894.28;4388141;32;20240;-54
2023/03/25 00:39:12;;;;;;;0.20;0.20;;;;;;;10.30;76.07;94895.91;4397715;32;20196;-52
2023/03/25 00:41:40;;;;;;;0.30;0.30;;;;;;;10.17;76.29;94894.87;4386986;32;20176;-57
2023/03/25 00:44:06;;;;;;;0.27;0.27;;;;;;;10.23;75.57;94892.88;4398373;32;20192;-55
2023/03/25 00:46:32;;;;;;;0.17;0.17;;;;;;;10.28;74.76;94879.53;4393497;32;20230;-53
2023/03/25 00:48:59;;;;;;;0.00;0.00;;;;;;;10.28;74.79;94869.69;4397302;32;20263;-54
2023/03/25 00:51:27;;;;;;;0.40;0.20;;;;;;;10.17;75.12;94883.47;4380330;32;20192;-54
2023/03/25 00:53:55;;;;;;;0.20;0.20;;;;;;;10.20;74.93;94877.59;4384101;32;20201;-55
2023/03/25 00:56:22;;;;;;;0.20;0.20;;;;;;;10.29;74.30;94887.16;4387910;32;20253;-54
2023/03/25 00:58:48;;;;;;;0.40;0.40;;;;;;;10.41;74.28;94891.12;4389606;32;20246;-51
2023/03/25 01:01:16;;;;;;;0.53;0.30;;;;;;;10.44;74.12;94882.56;4387641;32;20188;-52
2023/03/25 01:03:45;;;;;;;0.07;0.07;;;;;;;10.30;74.60;94878.13;4396610;32;20223;-52
2023/03/25 01:06:12;;;;;;;2.13;0.60;;;;;;;10.30;73.76;94878.13;4388485;32;20273;-55
2023/03/25 01:08:39;;;;;;;0.77;0.23;;;;;;;10.40;73.72;94868.34;4395353;32;20308;-53
2023/03/25 01:11:05;;;;;;;0.93;0.47;;;;;;;10.31;73.81;94884.22;4394248;32;20192;-53
2023/03/25 01:13:31;;;;;;;0.30;0.23;;;;;;;10.30;73.43;94867.53;4386856;32;20200;-52
2023/03/25 01:15:56;;;;;;;0.03;0.03;;;;;;;10.39;73.32;94870.25;4393767;32;20215;-52
2023/03/25 01:18:21;;;;;;;0.13;0.13;;;;;;;10.28;73.15;94866.25;4401037;32;20207;-53
2023/03/25 01:20:47;;;;;;;0.20;0.20;;;;;;;10.21;74.54;94858.72;4405896;32;20235;-55
2023/03/25 01:23:12;;;;;;;0.40;0.40;;;;;;;10.21;73.54;94882.59;4385701;32;20192;-54
2023/03/25 01:25:38;;;;;;;2.40;0.60;;;;;;;10.38;73.18;94876.63;4386355;32;20221;-56
2023/03/25 01:28:04;;;;;;;0.13;0.13;;;;;;;10.45;73.19;94884.16;4388580;32;20240;-53
2023/03/25 01:30:30;;;;;;;0.10;0.10;;;;;;;10.33;73.83;94874.88;4389058;32;20188;-53
2023/03/25 01:32:55;;;;;;;0.30;0.30;;;;;;;10.45;73.20;94868.22;4386348;32;20184;-54
2023/03/25 01:35:21;;;;;;;0.53;0.50;;;;;;;10.40;73.07;94876.31;4391127;32;20183;-51
2023/03/25 01:37:47;;;;;;;0.10;0.10;;;;;;;10.48;72.84;94881.69;4409542;32;20188;-51
2023/03/25 01:40:19;;;;;;;3.47;0.70;;;;;;;10.48;72.21;94870.28;4388275;32;20310;-53
2023/03/25 01:42:45;;;;;;;1.03;0.37;;;;;;;10.56;72.18;94865.03;4393473;32;20308;-51
2023/03/25 01:45:29;;;;;;;0.10;0.10;;;;;;;10.48;72.16;94871.06;4385331;32;20200;-54
2023/03/25 01:48:03;;;;;;;0.00;0.00;;;;;;;10.49;72.93;94869.19;4386372;32;20268;-54
2023/03/25 01:50:31;;;;;;;0.67;0.37;;;;;;;10.54;71.67;94872.50;4397543;32;20251;-54
2023/03/25 01:52:58;;;;;;;0.47;0.47;;;;;;;10.39;72.58;94864.16;4399736;32;20196;-49
2023/03/25 01:55:26;;;;;;;3.83;0.43;;;;;;;10.53;72.56;94875.47;4390146;32;20192;-54
2023/03/25 01:57:55;;;;;;;0.00;0.00;;;;;;;10.47;72.22;94868.72;4395835;32;20207;-52
2023/03/25 02:00:21;;;;;;;0.00;0.00;;;;;;;10.57;71.86;94861.31;4390602;32;20176;-52
2023/03/25 02:02:47;;;;;;;0.23;0.23;;;;;;;10.57;71.63;94871.13;4401000;32;20237;-53
2023/03/25 02:05:28;;;;;;;0.00;0.00;;;;;;;10.75;71.30;94866.69;4415340;32;20230;-53
2023/03/25 02:07:56;;;;;;;0.10;0.10;;;;;;;10.63;72.07;94867.25;4404793;32;20191;-52
2023/03/25 02:10:22;;;;;;;0.20;0.20;;;;;;;10.59;71.37;94871.59;4399929;32;20185;-54
2023/03/25 02:12:47;;;;;;;5.80;0.83;;;;;;;10.59;71.06;94861.78;4386598;32;20295;-54
2023/03/25 02:15:17;;;;;;;0.67;0.63;;;;;;;10.52;70.76;94868.59;4393895;32;20184;-53
2023/03/25 02:18:06;;;;;;;1.07;0.37;;;;;;;10.53;71.27;94860.34;4397941;32;20240;-53
2023/03/25 02:20:56;;;;;;;2.77;0.60;;;;;;;10.37;72.65;94859.16;4385992;32;20196;-54
2023/03/25 02:23:33;;;;;;;0.10;0.10;;;;;;;10.40;72.64;94845.28;4364136;32;20192;-53
2023/03/25 02:26:22;;;;;;;0.17;0.17;;;;;;;10.51;72.28;94840.50;4398272;32;20287;-52
2023/03/25 02:29:00;;;;;;;0.00;0.00;;;;;;;10.51;71.21;94845.81;4373957;32;20198;-53
2023/03/25 02:32:03;;;;;;;0.37;0.37;;;;;;;10.38;71.36;94836.09;4394945;32;20221;-53
2023/03/25 02:35:22;;;;;;;0.40;0.40;;;;;;;10.26;71.58;94834.75;4384390;32;20275;-56
2023/03/25 02:37:57;;;;;;;0.20;0.20;;;;;;;10.36;71.68;94851.50;4370418;32;20317;-52
2023/03/25 02:40:32;;;;;;;0.40;0.30;;;;;;;10.20;71.12;94843.91;4386968;32;20179;-55
2023/03/25 02:43:03;;;;;;;0.83;0.40;;;;;;;10.15;70.84;94851.19;4390558;32;20291;-54
2023/03/25 02:45:36;;;;;;;0.07;0.07;;;;;;;10.13;71.03;94856.78;4386759;32;20290;-52
2023/03/25 02:48:15;;;;;;;0.33;0.33;;;;;;;10.24;70.77;94857.34;4386173;32;20231;-55
2023/03/25 02:50:50;;;;;;;0.10;0.00;;;;;;;10.33;69.93;94864.28;4388238;32;20192;-54
2023/03/25 02:53:22;;;;;;;0.20;0.20;;;;;;;10.14;70.00;94858.34;4391039;32;20300;-52
2023/03/25 02:55:50;;;;;;;1.63;0.60;;;;;;;10.11;70.34;94848.34;4411192;32;20220;-54
2023/03/25 02:58:18;;;;;;;0.20;0.20;;;;;;;10.12;69.81;94851.78;4392684;32;20194;-54
2023/03/25 03:00:44;;;;;;;4.23;0.57;;;;;;;10.19;70.34;94860.09;4387482;32;20207;-54
2023/03/25 03:03:10;;;;;;;0.10;0.10;;;;;;;10.21;69.98;94853.41;4388085;32;20188;-55
2023/03/25 03:05:45;;;;;;;1.80;0.40;;;;;;;10.11;69.81;94858.94;4396906;32;20199;-54
2023/03/25 03:08:30;;;;;;;0.10;0.10;;;;;;;10.16;69.63;94866.00;4394393;32;20195;-53
2023/03/25 03:11:15;;;;;;;3.13;0.70;;;;;;;10.10;70.32;94856.59;4384566;32;20195;-54
2023/03/25 03:13:59;;;;;;;2.57;1.00;;;;;;;9.97;70.67;94856.37;4395083;32;20285;-51
2023/03/25 03:16:36;;;;;;;0.30;0.30;;;;;;;9.99;70.72;94858.69;4386942;32;20231;-51
2023/03/25 03:19:23;;;;;;;0.60;0.40;;;;;;;9.96;70.47;94836.25;4401269;32;20230;-55
2023/03/25 03:22:00;;;;;;;0.90;0.00;;;;;;;9.88;73.33;94849.44;4385540;32;20331;-56
2023/03/25 03:24:31;;;;;;;0.53;0.53;;;;;;;9.78;73.25;94845.12;4399906;32;20271;-54
2023/03/25 03:27:05;;;;;;;1.27;0.57;;;;;;;9.84;72.24;94827.25;4415210;32;20393;-55
2023/03/25 03:29:35;;;;;;;2.13;0.40;;;;;;;9.71;71.79;94836.03;4402695;32;20303;-53
2023/03/25 03:32:08;;;;;;;3.30;0.87;;;;;;;9.75;71.67;94840.44;4396794;32;20315;-55
2023/03/25 03:34:45;;;;;;;0.10;0.10;;;;;;;9.75;71.36;94845.75;4394844;32;20286;-54
2023/03/25 03:37:15;;;;;;;0.37;0.33;;;;;;;9.59;71.18;94842.63;4388896;32;20276;-54
2023/03/25 03:39:42;;;;;;;0.10;0.10;;;;;;;9.74;72.18;94838.09;4391470;32;20351;-54
2023/03/25 03:42:19;;;;;;;0.00;0.00;;;;;;;9.70;71.28;94850.38;4385325;32;20281;-50
2023/03/25 03:44:52;;;;;;;2.73;0.47;;;;;;;9.61;72.20;94851.06;4385430;32;20322;-54
2023/03/25 03:47:25;;;;;;;0.20;0.10;;;;;;;9.64;72.20;94855.00;4389475;32;20287;-55
2023/03/25 03:49:58;;;;;;;1.13;0.37;;;;;;;9.54;72.41;94849.94;4383200;32;20288;-55
2023/03/25 03:52:32;;;;;;;0.23;0.03;;;;;;;9.61;73.46;94843.13;4394461;32;20299;-53
2023/03/25 03:55:04;;;;;;;0.50;0.20;;;;;;;9.68;72.55;94855.97;4381844;32;20332;-55
2023/03/25 03:57:36;;;;;;;0.17;0.17;;;;;;;9.49;72.99;94858.75;4386128;32;20276;-52
2023/03/25 04:00:07;;;;;;;0.10;0.10;;;;;;;9.52;72.92;94865.31;4394940;32;20277;-54
2023/03/25 04:02:50;;;;;;;0.40;0.40;;;;;;;9.45;72.88;94875.53;4394039;32;20321;-54
2023/03/25 04:05:18;;;;;;;0.20;0.20;;;;;;;9.37;74.05;94881.50;4384252;32;20284;-56
2023/03/25 04:07:43;;;;;;;1.60;0.37;;;;;;;9.38;73.81;94883.06;4393481;32;20306;-55
2023/03/25 04:10:33;;;;;;;0.10;0.10;;;;;;;9.36;73.50;94891.31;4392190;32;20279;-54
2023/03/25 04:13:02;;;;;;;0.20;0.17;;;;;;;9.34;72.76;94885.56;4389478;32;20411;-52
2023/03/25 04:15:28;;;;;;;0.00;0.00;;;;;;;9.35;73.65;94886.34;4386225;32;20356;-54
2023/03/25 04:17:53;;;;;;;3.33;0.50;;;;;;;9.35;73.22;94887.13;4389438;32;20337;-54
2023/03/25 04:20:24;;;;;;;2.80;0.23;;;;;;;9.45;73.01;94888.75;4382005;32;20256;-55
2023/03/25 04:22:51;;;;;;;0.13;0.13;;;;;;;9.45;72.26;94883.47;4394458;32;20188;-54
2023/03/25 04:25:17;;;;;;;0.73;0.23;;;;;;;9.35;72.81;94888.97;4387604;32;20280;-55
2023/03/25 04:27:47;;;;;;;0.13;0.13;;;;;;;9.39;72.65;94895.22;4395652;32;20192;-53
2023/03/25 04:30:16;;;;;;;0.30;0.30;;;;;;;9.37;72.33;94895.53;4397750;32;20358;-55
2023/03/25 04:32:45;;;;;;;0.40;0.40;;;;;;;9.26;71.51;94899.47;4392834;32;20328;-53
2023/03/25 04:35:15;;;;;;;0.00;0.00;;;;;;;9.35;71.40;94889.78;4389142;32;20328;-52
2023/03/25 04:37:44;;;;;;;0.10;0.10;;;;;;;9.33;71.36;94897.22;4412690;32;20280;-51
2023/03/25 04:40:15;;;;;;;0.10;0.10;;;;;;;9.30;70.88;94887.22;4384028;32;20281;-53
2023/03/25 04:42:41;;;;;;;4.60;0.60;;;;;;;9.36;71.38;94888.66;4403516;32;20405;-55
2023/03/25 04:45:13;;;;;;;1.77;0.57;;;;;;;9.34;71.27;94892.72;4393086;32;20303;-54
2023/03/25 04:47:43;;;;;;;0.20;0.20;;;;;;;9.36;70.97;94886.00;4390199;32;20280;-58
2023/03/25 04:50:17;;;;;;;0.20;0.20;;;;;;;9.33;71.04;94888.50;4387865;32;20277;-54
2023/03/25 04:52:43;;;;;;;0.10;0.10;;;;;;;9.35;70.95;94902.22;4390313;32;20279;-54
2023/03/25 04:55:11;;;;;;;1.43;0.37;;;;;;;9.49;70.51;94913.56;4387705;32;20291;-59
2023/03/25 04:57:37;;;;;;;0.30;0.30;;;;;;;9.42;69.32;94910.53;4394892;32;20204;-54
2023/03/25 05:00:04;;;;;;;0.33;0.30;;;;;;;9.36;69.85;94904.53;4398198;32;20277;-54
2023/03/25 05:02:29;;;;;;;0.60;0.60;;;;;;;9.42;70.11;94899.94;4394506;32;20255;-56
2023/03/25 05:05:00;;;;;;;1.80;0.33;;;;;;;9.56;69.95;94892.78;4401108;32;20289;-55
2023/03/25 05:07:28;;;;;;;0.13;0.13;;;;;;;9.50;69.52;94897.38;4387043;32;20202;-55
2023/03/25 05:09:55;;;;;;;0.13;0.13;;;;;;;9.54;71.03;94882.47;4396168;32;20379;-56
2023/03/25 05:12:21;;;;;;;1.93;0.43;;;;;;;9.43;70.49;94890.91;4386309;32;20310;-54
2023/03/25 05:14:46;;;;;;;2.53;0.80;;;;;;;9.39;70.66;94893.38;4390122;32;20284;-54
2023/03/25 05:17:12;;;;;;;0.50;0.43;;;;;;;9.41;70.66;94883.28;4391291;32;20207;-55
2023/03/25 05:19:37;;;;;;;0.20;0.17;;;;;;;9.39;70.52;94895.22;4387573;32;20185;-55
2023/03/25 05:22:03;;;;;;;0.30;0.30;;;;;;;9.54;69.96;94902.87;4390562;32;20185;-53
2023/03/25 05:24:29;;;;;;;0.10;0.10;;;;;;;9.53;70.17;94894.16;4384831;32;20263;-56
2023/03/25 05:26:54;;;;;;;0.10;0.10;;;;;;;9.62;69.80;94897.66;4404608;32;20307;-55
2023/03/25 05:29:20;;;;;;;0.10;0.10;;;;;;;9.65;69.49;94883.03;4399704;32;20285;-56
2023/03/25 05:31:47;;;;;;;0.20;0.20;;;;;;;9.70;68.62;94890.09;4394843;32;20177;-56
2023/03/25 05:34:13;;;;;;;0.10;0.10;;;;;;;9.72;68.29;94904.63;4400171;32;20201;-54
2023/03/25 05:36:39;;;;;;;1.07;0.30;;;;;;;9.60;69.01;94918.34;4399013;32;20290;-57
2023/03/25 05:39:04;;;;;;;0.20;0.20;;;;;;;9.44;69.92;94909.16;4401418;32;20308;-54
2023/03/25 05:41:37;;;;;;;0.20;0.20;;;;;;;9.50;69.49;94918.56;4386954;32;20180;-56
2023/03/25 05:44:04;;;;;;;0.03;0.03;;;;;;;9.53;69.86;94922.50;4416831;32;20188;-56
2023/03/25 05:46:30;;;;;;;0.47;0.47;;;;;;;9.47;70.13;94919.16;4387809;32;20424;-53
2023/03/25 05:48:59;;;;;;;1.23;0.50;;;;;;;9.57;70.04;94926.88;4390092;32;20287;-55
2023/03/25 05:51:25;;;;;;;0.10;0.10;;;;;;;9.59;69.38;94932.66;4406615;32;20280;-56
2023/03/25 05:53:52;;;;;;;0.40;0.40;;;;;;;9.67;69.83;94922.47;4383935;32;20352;-56
2023/03/25 05:56:19;;;;;;;0.27;0.27;;;;;;;9.52;69.50;94920.94;4398031;32;20575;-54
2023/03/25 05:58:46;;;;;;;0.10;0.10;;;;;;;9.61;70.14;94925.22;4398776;32;20324;-56
2023/03/25 06:01:13;;;;;;;0.13;0.13;;;;;;;9.46;70.03;94927.41;4396026;32;20295;-54
2023/03/25 06:03:39;;;;;;;0.10;0.10;;;;;;;9.51;69.48;94936.03;4402760;32;20280;-53
2023/03/25 06:06:12;;;;;;;0.00;0.00;;;;;;;9.45;69.57;94934.56;4393803;32;20311;-55
2023/03/25 06:08:49;;;;;;;0.03;0.03;;;;;;;9.64;69.32;94932.56;4391378;32;20276;-56
2023/03/25 06:11:15;;;;;;;2.53;0.40;;;;;;;9.72;69.45;94940.91;4391904;32;20336;-54
2023/03/25 06:13:48;;;;;;;0.10;0.10;;;;;;;9.62;69.11;94957.78;4388899;32;20295;-54
2023/03/25 06:16:21;;;;;;;0.20;0.20;;;;;;;9.60;69.15;94954.63;4390528;32;20288;-55
2023/03/25 06:18:55;;;;;;;0.33;0.30;;;;;;;9.59;69.75;94959.16;4389865;32;20273;-55
2023/03/25 06:21:21;;;;;;;0.00;0.00;;;;;;;9.40;68.26;94955.81;4396626;32;20314;-54
2023/03/25 06:23:48;;;;;;;0.10;0.10;;;;;;;9.53;66.38;94955.06;4398557;32;20315;-55
2023/03/25 06:26:17;;;;;;;0.20;0.20;;;;;;;9.46;66.95;94964.47;4393658;32;20394;-54
2023/03/25 06:28:42;;;;;;;0.10;0.10;;;;;;;9.43;65.93;94967.69;4415939;32;20283;-53
2023/03/25 06:31:16;;;;;;;0.10;0.10;;;;;;;9.56;66.07;94974.88;4391421;32;20363;-53
2023/03/25 06:33:43;;;;;;;0.00;0.00;;;;;;;9.49;65.35;94975.25;4386489;32;20189;-54
2023/03/25 06:36:10;;;;;;;0.10;0.10;;;;;;;9.41;64.14;94981.22;4401321;32;20326;-55
2023/03/25 06:38:36;;;;;;;0.00;0.00;;;;;;;9.44;63.17;94983.28;4394280;32;20289;-55
2023/03/25 06:41:01;;;;;;;0.10;0.10;;;;;;;9.51;62.69;94983.69;4383978;32;20302;-54
2023/03/25 06:43:26;;;;;;;0.00;0.00;;;;;;;9.38;64.10;94983.66;4391408;32;20207;-56
2023/03/25 06:45:52;;;;;;;0.00;0.00;;;;;;;9.60;62.75;94997.78;4393609;32;20236;-53
2023/03/25 06:48:17;;;;;;;0.00;0.00;;;;;;;9.36;62.76;95015.72;4401811;32;20180;-55
2023/03/25 06:50:44;;;;;;;0.10;0.10;;;;;;;9.35;63.57;95011.53;4408146;32;20199;-53
2023/03/25 06:53:10;;;;;;;0.00;0.00;;;;;;;9.42;63.67;95001.31;4406971;32;20219;-55
2023/03/25 06:55:35;;;;;;;0.00;0.00;;;;;;;9.26;63.68;95002.69;4419344;32;20287;-55
2023/03/25 06:58:05;;;;;;;0.20;0.20;;;;;;;9.25;64.34;95001.91;4408631;32;20225;-56
2023/03/25 07:00:31;;;;;;;0.10;0.10;;;;;;;9.22;64.89;95015.72;4386694;32;20196;-55
2023/03/25 07:02:57;;;;;;;0.00;0.00;;;;;;;9.14;65.79;95011.13;4394759;32;20286;-54
2023/03/25 07:05:23;;;;;;;0.10;0.10;;;;;;;9.22;67.65;95018.34;4392060;32;20188;-56
2023/03/25 07:07:48;;;;;;;0.03;0.03;;;;;;;9.47;66.06;95024.28;4387989;32;20292;-55
2023/03/25 07:10:14;;;;;;;0.00;0.00;;;;;;;9.23;66.88;95019.16;4381019;32;20201;-53
2023/03/25 07:12:39;;;;;;;0.17;0.13;;;;;;;9.24;67.10;95024.16;4387036;32;20181;-54
2023/03/25 07:15:05;;;;;;;0.20;0.20;;;;;;;9.11;67.77;95021.47;4392205;32;20290;-53
2023/03/25 07:17:31;;;;;;;0.10;0.10;;;;;;;9.22;67.86;95014.94;4389076;32;20180;-54
2023/03/25 07:19:56;;;;;;;0.20;0.20;;;;;;;9.29;67.59;95021.41;4393787;32;20325;-55
2023/03/25 07:22:22;;;;;;;0.00;0.00;;;;;;;9.24;68.22;95026.78;4397325;32;20189;-53
2023/03/25 07:24:47;;;;;;;0.10;0.10;;;;;;;9.37;67.55;95038.47;4385719;32;20196;-54
2023/03/25 07:27:14;;;;;;;0.00;0.00;;;;;;;9.19;68.57;95034.81;4381658;32;20312;-54
2023/03/25 07:29:40;;;;;;;0.00;0.00;;;;;;;9.09;69.45;95035.00;4395093;32;20232;-55
2023/03/25 07:32:05;;;;;;;0.10;0.10;;;;;;;9.22;68.35;95044.03;4394351;32;20275;-55
2023/03/25 07:34:30;;;;;;;0.13;0.13;;;;;;;9.21;68.96;95061.78;4396575;32;20327;-54
2023/03/25 07:36:56;;;;;;;0.00;0.00;;;;;;;9.05;69.75;95049.09;4388420;32;20251;-51
2023/03/25 07:39:24;;;;;;;0.10;0.10;;;;;;;9.25;69.08;95056.69;4387411;32;20192;-54
2023/03/25 07:41:52;;;;;;;0.00;0.00;;;;;;;9.08;68.80;95057.25;4397402;32;20235;-55
2023/03/25 07:44:20;;;;;;;0.00;0.00;;;;;;;8.98;69.17;95052.09;4386953;32;20288;-54
2023/03/25 07:46:47;;;;;;;3.63;0.40;;;;;;;9.12;69.56;95054.81;4399851;32;20284;-56
2023/03/25 07:49:13;;;;;;;0.30;0.13;;;;;;;9.12;69.39;95049.53;4403278;32;20280;-55
2023/03/25 07:51:38;;;;;;;0.00;0.00;;;;;;;9.20;69.10;95051.47;4386544;32;20299;-54
2023/03/25 07:54:03;;;;;;;0.10;0.10;;;;;;;9.14;68.16;95047.37;4396316;32;20255;-54
2023/03/25 07:56:29;;;;;;;0.10;0.10;;;;;;;9.15;68.93;95060.28;4404142;32;20259;-56
2023/03/25 07:58:54;;;;;;;0.00;0.00;;;;;;;9.01;69.29;95063.97;4392249;32;20188;-55
2023/03/25 08:01:19;;;;;;;0.00;0.00;;;;;;;8.89;69.43;95064.44;4398454;32;20199;-56
2023/03/25 08:03:45;;;;;;;0.00;0.00;;;;;;;8.98;69.60;95061.91;4385567;32;20203;-56
2023/03/25 08:06:10;;;;;;;0.30;0.30;;;;;;;8.89;69.93;95062.56;4392405;32;20192;-53
2023/03/25 08:08:36;;;;;;;0.00;0.00;;;;;;;9.10;70.02;95056.97;4395712;32;20247;-55
2023/03/25 08:11:01;;;;;;;1.30;0.33;;;;;;;9.21;69.56;95053.06;4392648;32;20211;-53
2023/03/25 08:13:27;;;;;;;0.10;0.10;;;;;;;9.13;69.87;95059.03;4386629;32;20212;-53
2023/03/25 08:15:52;;;;;;;0.97;0.40;;;;;;;9.27;69.48;95057.97;4393735;32;20199;-53
2023/03/25 08:18:18;;;;;;;0.03;0.03;;;;;;;9.23;69.07;95049.03;4383359;32;20219;-54
2023/03/25 08:20:43;;;;;;;0.40;0.23;;;;;;;9.40;70.03;95066.22;4399458;32;20214;-52
2023/03/25 08:23:18;;;;;;;0.00;0.00;;;;;;;9.37;69.44;95066.81;4400859;32;20223;-55
2023/03/25 08:25:47;;;;;;;1.70;0.20;;;;;;;9.52;68.96;95059.41;4395832;32;20217;-55
2023/03/25 08:28:16;;;;;;;0.00;0.00;;;;;;;9.34;69.99;95056.81;4409954;32;20280;-55
2023/03/25 08:30:41;;;;;;;0.00;0.00;;;;;;;9.48;69.46;95052.31;4387109;32;20273;-53
2023/03/25 08:33:08;;;;;;;0.30;0.30;;;;;;;9.43;69.68;95053.19;4394647;32;20296;-54
2023/03/25 08:35:35;;;;;;;0.10;0.10;;;;;;;9.52;69.43;95045.38;4390304;32;20184;-52
2023/03/25 08:38:04;;;;;;;0.13;0.13;;;;;;;9.40;69.44;95045.84;4390247;32;20329;-56
2023/03/25 08:40:30;;;;;;;0.00;0.00;;;;;;;9.63;69.40;95047.53;4388075;32;20370;-56
2023/03/25 08:42:56;;;;;;;4.93;0.20;;;;;;;9.56;69.55;95041.81;4388119;32;20318;-52
2023/03/25 08:45:21;;;;;;;0.10;0.10;;;;;;;9.65;70.60;95037.44;4390502;32;20286;-54
2023/03/25 08:47:46;;;;;;;0.10;0.10;;;;;;;9.77;69.79;95046.75;4393617;32;20272;-55
2023/03/25 08:50:12;;;;;;;0.00;0.00;;;;;;;9.70;69.78;95059.59;4390128;32;20176;-52
2023/03/25 08:52:37;;;;;;;0.10;0.10;;;;;;;9.95;71.03;95051.19;4397340;32;20200;-54
2023/03/25 08:55:04;;;;;;;0.00;0.00;;;;;;;9.85;69.13;95043.41;4393541;32;20184;-56
2023/03/25 08:57:29;;;;;;;0.00;0.00;;;;;;;10.01;68.88;95057.91;4393020;32;20286;-56
2023/03/25 08:59:54;;;;;;;0.70;0.20;;;;;;;9.97;68.58;95049.00;4386005;32;20288;-53
2023/03/25 09:02:20;;;;;;;0.00;0.00;;;;;;;9.98;70.09;95045.25;4408220;32;20200;-55
2023/03/25 09:04:47;;;;;;;0.00;0.00;;;;;;;9.80;68.68;95048.81;4385344;32;20185;-54
2023/03/25 09:07:13;;;;;;;0.07;0.07;;;;;;;9.83;69.98;95053.50;4395711;32;20203;-55
2023/03/25 09:09:39;;;;;;;0.00;0.00;;;;;;;9.93;68.85;95048.81;4396782;32;20298;-55
2023/03/25 09:12:05;;;;;;;0.30;0.10;;;;;;;9.91;69.20;95052.84;4389123;32;20227;-56
2023/03/25 09:14:31;;;;;;;0.00;0.00;;;;;;;9.95;68.87;95043.22;4394408;32;20343;-54
2023/03/25 09:16:56;;;;;;;0.20;0.20;;;;;;;10.02;68.94;95043.59;4393387;32;20293;-64
2023/03/25 09:19:21;;;;;;;0.40;0.20;;;;;;;11.01;87.59;95040.13;4393522;32;20207;-63
2023/03/25 09:21:47;;;;;;;1.20;0.47;;;;;;;11.15;72.11;95040.03;4385430;32;20173;-64
2023/03/25 09:24:12;;;;;;;0.30;0.30;;;;;;;12.15;81.57;95030.47;4379922;32;20207;-64
2023/03/25 09:26:38;;;;;;;0.40;0.30;;;;;;;12.28;69.97;95036.75;4379232;32;20204;-64
2023/03/25 09:29:03;;;;;;;2.70;1.00;;;;;;;12.73;73.10;95031.94;4380898;32;20216;-64
2023/03/25 09:31:29;;;;;;;0.40;0.40;;;;;;;12.89;67.90;95058.84;4392259;32;20270;-64
2023/03/25 09:33:55;;;;;;;0.37;0.37;;;;;;;13.14;72.59;95030.63;4385505;32;20199;-64
2023/03/25 09:36:20;;;;;;;0.17;0.17;;;;;;;12.92;62.04;95026.28;4396949;32;20239;-64
2023/03/25 09:38:46;;;;;;;0.20;0.20;;;;;;;13.28;69.82;95018.75;4399876;32;20188;-64
2023/03/25 09:41:23;;;;;;;0.23;0.23;;;;;;;13.57;73.92;95031.34;4382738;32;20177;-64
2023/03/25 09:44:27;;;;;;;0.07;0.07;;;;;;;13.63;71.10;95024.75;4395032;32;20229;-64
2023/03/25 09:46:53;;;;;;;0.00;0.00;;;;;;;13.70;67.98;95017.03;4380588;32;20198;-64
2023/03/25 09:49:24;;;;;;;0.10;0.10;;;;;;;13.77;65.61;95014.63;4390337;32;20252;-64
2023/03/25 09:51:51;;;;;;;0.30;0.30;;;;;;;14.01;67.88;95013.28;4389035;32;20228;-64
2023/03/25 09:54:23;;;;;;;0.00;0.00;;;;;;;13.94;65.19;95000.44;4399559;32;20188;-64
2023/03/25 09:56:50;;;;;;;0.10;0.10;;;;;;;14.17;65.78;95006.28;4402632;32;20228;-64
2023/03/25 09:59:22;;;;;;;0.50;0.10;;;;;;;14.00;64.52;95014.38;4397638;32;20183;-64
2023/03/25 10:02:15;;;;;;;0.10;0.10;;;;;;;13.70;60.05;95022.38;4391313;32;20274;-64
2023/03/25 10:05:02;;;;;;;0.27;0.27;;;;;;;13.63;61.80;95006.09;4382205;32;20192;-62
2023/03/25 10:07:31;;;;;;;2.13;0.63;;;;;;;13.17;57.43;95006.84;4388342;32;20243;-64
2023/03/25 10:10:14;;;;;;;1.03;0.20;;;;;;;13.59;62.41;94997.16;4395145;32;20184;-64
2023/03/25 10:12:58;;;;;;;0.13;0.13;;;;;;;13.76;55.26;95002.41;4402083;32;20217;-63
2023/03/25 10:15:45;;;;;;;0.40;0.40;;;;;;;14.17;55.34;95000.16;4389684;32;20210;-64
2023/03/25 10:18:32;;;;;;;1.20;0.53;;;;;;;14.53;56.80;94980.97;4393623;32;20187;-63
2023/03/25 10:21:14;;;;;;;0.10;0.10;;;;;;;14.55;52.37;94989.44;4398004;32;20204;-64
2023/03/25 10:23:47;;;;;;;1.07;0.67;;;;;;;14.90;53.33;94990.69;4380461;32;20192;-64
2023/03/25 10:26:41;;;;;;;0.07;0.00;;;;;;;15.03;53.90;94962.09;4392550;32;20188;-63
2023/03/25 10:29:11;;;;;;;0.10;0.10;;;;;;;14.99;53.14;94967.31;4404916;32;20236;-64
2023/03/25 10:31:44;;;;;;;0.53;0.30;;;;;;;15.09;51.72;94958.91;4411039;32;20210;-64
2023/03/25 10:34:15;;;;;;;0.00;0.00;;;;;;;15.11;50.39;94962.03;4391521;32;20192;-64
2023/03/25 10:36:56;;;;;;;0.00;0.00;;;;;;;15.20;52.94;94950.44;4396417;32;20249;-63
2023/03/25 10:39:24;;;;;;;0.10;0.10;;;;;;;15.00;51.73;94984.13;4398389;32;20242;-64
2023/03/25 10:41:55;;;;;;;0.83;0.30;;;;;;;14.93;53.86;94955.31;4391954;32;20207;-64
2023/03/25 10:44:23;;;;;;;0.10;0.10;;;;;;;15.05;52.97;94963.34;4391737;32;20293;-64
2023/03/25 10:47:03;;;;;;;0.10;0.07;;;;;;;15.26;53.51;94962.50;4412313;32;20193;-64
2023/03/25 10:49:30;;;;;;;0.30;0.20;;;;;;;15.40;54.33;94960.28;4399890;32;20234;-64
2023/03/25 10:51:58;;;;;;;0.43;0.30;;;;;;;15.60;55.47;94974.72;4389570;32;20185;-64
2023/03/25 10:54:28;;;;;;;0.13;0.13;;;;;;;15.60;53.67;94974.72;4393015;32;20304;-64
2023/03/25 10:56:57;;;;;;;0.20;0.20;;;;;;;15.39;55.86;94966.75;4389724;32;20212;-56
2023/03/25 10:59:29;;;;;;;0.20;0.20;;;;;;;14.94;51.58;94959.53;4394283;32;20293;-49
2023/03/25 11:01:56;;;;;;;0.20;0.20;;;;;;;14.30;52.76;94959.91;4387024;32;20184;-54
2023/03/25 11:04:35;;;;;;;0.00;0.00;;;;;;;13.47;55.40;94964.31;4387309;32;20204;-50
2023/03/25 11:07:04;;;;;;;0.40;0.20;;;;;;;12.93;55.44;94953.28;4399225;32;20276;-52
2023/03/25 11:09:31;;;;;;;0.30;0.30;;;;;;;12.55;57.18;94945.22;4397694;32;20216;-54
2023/03/25 11:12:01;;;;;;;0.10;0.10;;;;;;;12.34;58.83;94947.72;4396311;32;20225;-54
2023/03/25 11:14:28;;;;;;;0.10;0.10;;;;;;;12.13;57.59;94946.78;4395409;32;20180;-52
2023/03/25 11:16:59;;;;;;;0.10;0.10;;;;;;;12.22;56.62;94951.03;4399220;32;20256;-52
2023/03/25 11:19:30;;;;;;;0.20;0.20;;;;;;;12.27;57.02;94924.25;4399013;32;20200;-50
2023/03/25 11:22:06;;;;;;;0.00;0.00;;;;;;;12.11;57.58;94935.66;4405660;32;20187;-52
2023/03/25 11:24:39;;;;;;;0.00;0.00;;;;;;;12.01;56.66;94940.22;4406220;32;20227;-54
2023/03/25 11:27:07;;;;;;;0.20;0.20;;;;;;;12.02;58.03;94941.00;4401594;32;20196;-54
2023/03/25 11:29:35;;;;;;;0.10;0.10;;;;;;;12.07;58.91;94929.41;4408073;32;20196;-53
2023/03/25 11:32:12;;;;;;;0.10;0.10;;;;;;;12.02;60.10;94933.03;4416014;32;20309;-52
2023/03/25 11:34:40;;;;;;;1.27;0.43;;;;;;;11.98;58.32;94916.91;4407780;32;20246;-53
2023/03/25 11:37:07;;;;;;;0.03;0.03;;;;;;;11.99;58.65;94925.66;4401572;32;20196;-53
2023/03/25 11:39:41;;;;;;;0.00;0.00;;;;;;;11.83;58.01;94919.25;4401627;32;20195;-51
2023/03/25 11:42:15;;;;;;;0.00;0.00;;;;;;;11.84;58.16;94912.84;4410440;32;20218;-53
2023/03/25 11:44:48;;;;;;;0.30;0.30;;;;;;;11.93;59.20;94903.75;4402359;32;20237;-54
2023/03/25 11:47:20;;;;;;;0.93;0.33;;;;;;;12.12;60.18;94911.44;4405487;32;20231;-55